Time;durP1;ratioP1;P1;durP2;ratioP2;P2;SDS_P1;SDS_P2;PMS_P1;PMS_P2;Temp;Humidity;BMP_temperature;BMP_pressure;BME280_temperature;BME280_humidity;BME280_pressure;Samples;Min_cycle;Max_cycle;Signal;HPM_P1;HPM_P2
2022/09/25 00:00:43;;;;;;;6.30;2.40;;;21.10;99.90;;;;;;5092034;28;20016;-73
2022/09/25 00:03:14;;;;;;;4.57;2.15;;;21.10;99.90;;;;;;5091902;28;20029;-71
2022/09/25 00:05:42;;;;;;;6.32;2.03;;;21.10;99.90;;;;;;5092048;28;20371;-73
2022/09/25 00:08:09;;;;;;;7.07;2.30;;;21.10;99.90;;;;;;5091668;28;20476;-71
2022/09/25 00:11:01;;;;;;;;;;;21.10;99.90;;;;;;5091837;28;20123;-71
2022/09/25 00:13:27;;;;;;;7.45;2.03;;;21.10;99.90;;;;;;5089354;28;19908;-71
2022/09/25 00:15:56;;;;;;;5.15;2.00;;;21.10;99.90;;;;;;5091664;28;20063;-71
2022/09/25 00:21:11;;;;;;;3.60;2.00;;;21.00;99.90;;;;;;5091393;28;20035;-71
2022/09/25 00:23:38;;;;;;;5.07;1.90;;;21.00;99.90;;;;;;5091132;28;20032;-71
2022/09/25 00:26:07;;;;;;;;;;;21.00;99.90;;;;;;5091705;28;20048;-72
2022/09/25 00:28:34;;;;;;;6.10;2.10;;;21.00;99.90;;;;;;5091280;28;19904;-71
2022/09/25 00:31:03;;;;;;;3.67;1.85;;;21.00;99.90;;;;;;5089434;28;20044;-72
2022/09/25 00:33:31;;;;;;;4.30;1.65;;;21.00;99.90;;;;;;5091299;28;20024;-71
2022/09/25 00:36:06;;;;;;;4.90;2.15;;;21.00;99.90;;;;;;5091376;28;20169;-71
2022/09/25 00:38:34;;;;;;;6.75;2.08;;;21.00;99.90;;;;;;5091277;28;20017;-71
2022/09/25 00:41:00;;;;;;;6.50;2.20;;;20.90;99.90;;;;;;5090832;28;20481;-72
2022/09/25 00:43:38;;;;;;;3.80;2.00;;;20.90;99.90;;;;;;5090556;28;20027;-72
2022/09/25 00:46:13;;;;;;;6.72;2.33;;;21.00;99.90;;;;;;5091297;28;20095;-72
2022/09/25 00:48:52;;;;;;;4.63;2.00;;;21.00;99.90;;;;;;5089458;28;20038;-72
2022/09/25 00:51:27;;;;;;;6.05;2.03;;;21.00;99.90;;;;;;5091174;28;20502;-72
2022/09/25 00:53:53;;;;;;;6.72;2.00;;;21.00;99.90;;;;;;5091204;28;20031;-72
2022/09/25 00:56:19;;;;;;;7.28;2.35;;;21.00;99.90;;;;;;5090838;28;20085;-72
2022/09/25 00:58:46;;;;;;;7.60;2.47;;;21.10;99.90;;;;;;5091270;28;20031;-72
2022/09/25 01:01:13;;;;;;;5.68;2.15;;;21.10;99.90;;;;;;5090865;28;20024;-72
2022/09/25 01:03:40;;;;;;;4.68;2.00;;;21.10;99.90;;;;;;5091139;28;20136;-71
2022/09/25 01:06:09;;;;;;;7.13;2.08;;;21.10;99.90;;;;;;5090918;28;20475;-72
2022/09/25 01:08:36;;;;;;;3.58;1.55;;;21.10;99.90;;;;;;5091148;28;20020;-72
2022/09/25 01:11:03;;;;;;;5.82;2.00;;;21.00;99.90;;;;;;5090681;28;20127;-73
2022/09/25 01:13:29;;;;;;;3.67;2.20;;;21.10;99.90;;;;;;5090762;28;20111;-71
2022/09/25 01:16:06;;;;;;;4.55;2.13;;;21.10;99.90;;;;;;5090854;28;20071;-71
2022/09/25 01:19:04;;;;;;;;;;;21.00;99.90;;;;;;5090997;28;20081;-72
2022/09/25 01:21:46;;;;;;;6.50;2.00;;;21.00;99.90;;;;;;5067348;28;19998;-72
2022/09/25 01:24:37;;;;;;;7.30;2.25;;;21.00;99.90;;;;;;5091068;28;20028;-71
2022/09/25 01:27:34;;;;;;;4.75;2.13;;;20.90;99.90;;;;;;5090897;28;20388;-72
2022/09/25 01:30:17;;;;;;;8.20;2.20;;;20.80;99.90;;;;;;5090691;28;20059;-72
2022/09/25 01:32:53;;;;;;;5.25;2.08;;;20.80;99.90;;;;;;5090682;28;20051;-71
2022/09/25 01:35:31;;;;;;;6.90;1.75;;;20.90;99.90;;;;;;5090595;28;20338;-72
2022/09/25 01:37:59;;;;;;;6.03;1.95;;;20.80;99.90;;;;;;5090945;28;20028;-71
2022/09/25 01:40:32;;;;;;;5.60;2.28;;;20.80;99.90;;;;;;5090879;28;20349;-71
2022/09/25 01:43:13;;;;;;;5.25;2.20;;;20.80;99.90;;;;;;5090931;28;20107;-71
2022/09/25 01:45:59;;;;;;;5.18;1.90;;;20.80;99.90;;;;;;5090979;28;20028;-72
2022/09/25 01:48:31;;;;;;;7.55;2.35;;;20.80;99.90;;;;;;5090633;28;20020;-71
2022/09/25 01:51:33;;;;;;;7.25;2.28;;;20.80;99.90;;;;;;5090927;28;20035;-72
2022/09/25 01:54:09;;;;;;;6.07;2.00;;;20.80;99.90;;;;;;5028768;28;20050;-72
2022/09/25 01:56:52;;;;;;;3.90;2.00;;;20.80;99.90;;;;;;5032333;28;20159;-72
2022/09/25 01:59:38;;;;;;;6.38;1.98;;;20.80;99.90;;;;;;5032235;28;20067;-72
2022/09/25 02:02:12;;;;;;;4.90;1.83;;;20.80;99.90;;;;;;5032020;28;20425;-72
2022/09/25 02:05:01;;;;;;;5.60;1.95;;;20.80;99.90;;;;;;5032274;28;20418;-72
2022/09/25 02:07:35;;;;;;;9.45;2.65;;;20.80;99.90;;;;;;5031344;28;20572;-72
2022/09/25 02:10:20;;;;;;;4.30;2.22;;;20.70;99.90;;;;;;5031623;28;20042;-72
2022/09/25 02:12:53;;;;;;;4.93;2.13;;;20.80;99.90;;;;;;5031835;28;20466;-71
2022/09/25 02:15:33;;;;;;;4.13;1.70;;;20.80;99.90;;;;;;5015476;28;20385;-72
2022/09/25 02:20:55;;;;;;;3.85;1.85;;;20.80;99.90;;;;;;5031421;28;20036;-72
2022/09/25 02:23:45;;;;;;;4.15;2.20;;;20.80;99.90;;;;;;5031610;28;20045;-71
2022/09/25 02:26:20;;;;;;;6.72;2.00;;;20.70;99.90;;;;;;5013394;28;20041;-72
2022/09/25 02:28:48;;;;;;;3.92;1.95;;;20.70;99.90;;;;;;5028186;28;20412;-72
2022/09/25 02:31:16;;;;;;;5.68;1.98;;;20.70;99.90;;;;;;5093470;28;20074;-71
2022/09/25 02:33:42;;;;;;;7.70;2.10;;;20.70;99.90;;;;;;5093982;28;20084;-72
2022/09/25 02:36:20;;;;;;;5.53;1.83;;;20.70;99.90;;;;;;5094033;28;20034;-71
2022/09/25 02:38:54;;;;;;;3.63;1.88;;;20.70;99.90;;;;;;5093464;28;20338;-71
2022/09/25 02:41:42;;;;;;;7.97;2.00;;;20.70;99.90;;;;;;5093613;28;20074;-72
2022/09/25 02:44:26;;;;;;;3.70;1.63;;;20.60;99.90;;;;;;5093817;28;20039;-71
2022/09/25 02:47:13;;;;;;;5.07;2.10;;;20.60;99.90;;;;;;5093737;28;20047;-73
2022/09/25 02:49:49;;;;;;;3.65;1.80;;;20.60;99.90;;;;;;5093538;28;20028;-72
2022/09/25 02:52:52;;;;;;;3.10;1.80;;;20.60;99.90;;;;;;5093128;28;20059;-72
2022/09/25 02:55:44;;;;;;;6.13;2.03;;;20.60;99.90;;;;;;5093679;28;20020;-71
2022/09/25 02:58:18;;;;;;;5.20;2.17;;;20.60;99.90;;;;;;5093682;28;20039;-71
2022/09/25 03:00:48;;;;;;;3.92;2.00;;;20.50;99.90;;;;;;5093438;28;20016;-72
2022/09/25 03:03:17;;;;;;;4.30;2.10;;;20.60;99.90;;;;;;5093630;28;20032;-71
2022/09/25 03:05:46;;;;;;;5.93;2.28;;;20.60;99.90;;;;;;5093260;28;20012;-71
2022/09/25 03:10:58;;;;;;;3.97;2.10;;;20.60;99.90;;;;;;5093398;28;20138;-71
2022/09/25 03:13:30;;;;;;;3.70;2.13;;;20.50;99.90;;;;;;5093018;28;20405;-72
2022/09/25 03:16:02;;;;;;;8.30;2.35;;;20.50;99.90;;;;;;5093183;28;20463;-72
2022/09/25 03:18:29;;;;;;;3.25;1.77;;;20.50;99.90;;;;;;5093309;28;20487;-71
2022/09/25 03:20:56;;;;;;;4.07;2.00;;;20.60;99.90;;;;;;5093223;28;20034;-72
2022/09/25 03:23:22;;;;;;;7.78;2.00;;;20.70;99.90;;;;;;5093230;28;20020;-72
2022/09/25 03:25:48;;;;;;;4.40;1.85;;;20.70;99.90;;;;;;5093075;28;20039;-71
2022/09/25 03:28:14;;;;;;;4.75;2.05;;;20.70;99.90;;;;;;5093159;28;20421;-72
2022/09/25 03:30:40;;;;;;;5.15;1.90;;;20.70;99.90;;;;;;5092605;28;20055;-72
2022/09/25 03:33:11;;;;;;;4.88;2.03;;;20.70;99.90;;;;;;5092761;28;20110;-72
2022/09/25 03:35:38;;;;;;;4.95;2.30;;;20.70;99.90;;;;;;5092784;28;20035;-72
2022/09/25 03:38:04;;;;;;;6.28;1.95;;;20.60;99.90;;;;;;5092538;28;20148;-72
2022/09/25 03:40:30;;;;;;;4.30;1.88;;;20.60;99.90;;;;;;5092936;28;20043;-72
2022/09/25 03:42:56;;;;;;;4.80;1.73;;;20.60;99.90;;;;;;5092815;28;20367;-72
2022/09/25 03:45:22;;;;;;;4.40;2.17;;;20.50;99.90;;;;;;5092324;28;20032;-71
2022/09/25 03:47:48;;;;;;;5.60;1.83;;;20.50;99.90;;;;;;5091005;28;20484;-72
2022/09/25 03:50:14;;;;;;;3.83;1.90;;;20.50;99.90;;;;;;5092657;28;20048;-71
2022/09/25 03:52:40;;;;;;;5.20;2.10;;;20.50;99.90;;;;;;5092638;28;20032;-71
2022/09/25 03:55:07;;;;;;;5.90;1.90;;;20.50;99.90;;;;;;5092130;28;20049;-72
2022/09/25 03:57:33;;;;;;;5.10;1.83;;;20.50;99.90;;;;;;5092234;28;20531;-72
2022/09/25 04:00:02;;;;;;;7.65;1.95;;;20.50;99.90;;;;;;5090781;28;20043;-71
2022/09/25 04:02:28;;;;;;;3.55;1.98;;;20.50;99.90;;;;;;5090825;28;20032;-71
2022/09/25 04:04:55;;;;;;;4.72;2.00;;;20.50;99.90;;;;;;5092293;28;20339;-71
2022/09/25 04:07:22;;;;;;;4.65;2.25;;;20.40;99.90;;;;;;5092458;28;20040;-71
2022/09/25 04:09:48;;;;;;;7.20;2.08;;;20.30;99.90;;;;;;5091938;28;20035;-72
2022/09/25 04:12:15;;;;;;;5.32;2.10;;;20.30;99.90;;;;;;5092333;28;20324;-71
2022/09/25 04:14:42;;;;;;;5.05;2.03;;;20.20;99.90;;;;;;5092161;28;20060;-72
2022/09/25 04:17:08;;;;;;;4.10;1.80;;;20.10;99.90;;;;;;5091608;28;20028;-72
2022/09/25 04:19:34;;;;;;;6.60;1.90;;;20.20;99.90;;;;;;5090404;28;20031;-72
2022/09/25 04:22:00;;;;;;;4.90;1.80;;;20.20;99.90;;;;;;5092185;28;20024;-72
2022/09/25 04:27:10;;;;;;;4.68;1.95;;;20.20;99.90;;;;;;5092045;28;20054;-72
2022/09/25 04:29:36;;;;;;;5.68;1.92;;;20.20;99.90;;;;;;5091758;28;20399;-71
2022/09/25 04:34:47;;;;;;;3.28;1.60;;;20.20;99.90;;;;;;5091628;28;20177;-71
2022/09/25 04:37:13;;;;;;;6.13;2.17;;;20.20;99.90;;;;;;5092005;28;20035;-71
2022/09/25 04:39:39;;;;;;;;;;;20.30;99.90;;;;;;5092454;28;20021;-72
2022/09/25 04:42:06;;;;;;;4.30;1.85;;;20.30;99.90;;;;;;5091513;28;19911;-72
2022/09/25 04:44:32;;;;;;;6.20;2.20;;;20.30;99.90;;;;;;5091571;28;20111;-72
2022/09/25 04:46:58;;;;;;;4.32;1.70;;;20.30;99.90;;;;;;5091398;28;20020;-72
2022/09/25 04:49:24;;;;;;;3.65;1.83;;;20.30;99.90;;;;;;5091459;28;20025;-71
2022/09/25 04:51:50;;;;;;;6.20;1.90;;;20.40;99.90;;;;;;5091506;28;20036;-72
2022/09/25 04:54:16;;;;;;;4.05;1.90;;;20.40;99.90;;;;;;5091890;28;20039;-72
2022/09/25 04:56:43;;;;;;;4.90;1.95;;;20.40;99.90;;;;;;5091427;28;20459;-72
2022/09/25 04:59:12;;;;;;;3.65;1.83;;;20.40;99.90;;;;;;5091545;28;20047;-71
2022/09/25 05:01:38;;;;;;;5.75;2.05;;;20.30;99.90;;;;;;5091734;28;20393;-72
2022/09/25 05:04:04;;;;;;;6.60;2.20;;;20.20;99.90;;;;;;5091300;28;20020;-72
2022/09/25 05:06:30;;;;;;;4.38;1.88;;;20.10;99.90;;;;;;5091676;28;20025;-71
2022/09/25 05:08:56;;;;;;;7.07;1.90;;;20.10;99.90;;;;;;5091605;28;20036;-71
2022/09/25 05:11:22;;;;;;;5.63;2.25;;;20.20;99.90;;;;;;5091111;28;20036;-72
2022/09/25 05:13:50;;;;;;;5.93;1.90;;;20.20;99.90;;;;;;5091270;28;20065;-71
2022/09/25 05:16:16;;;;;;;5.25;2.05;;;20.30;99.90;;;;;;5091172;28;20066;-72
2022/09/25 05:18:42;;;;;;;6.07;2.10;;;20.30;99.90;;;;;;5091563;28;20016;-72
2022/09/25 05:21:08;;;;;;;7.35;2.03;;;20.20;99.90;;;;;;5089783;28;20024;-72
2022/09/25 05:23:34;;;;;;;6.40;2.40;;;20.30;99.90;;;;;;5090912;28;20028;-71
2022/09/25 05:26:01;;;;;;;5.43;2.10;;;20.30;99.90;;;;;;5091535;28;20032;-71
2022/09/25 05:28:27;;;;;;;;;;;20.40;99.90;;;;;;5091411;28;20097;-72
2022/09/25 05:30:53;;;;;;;4.72;2.20;;;20.40;99.90;;;;;;5094282;28;19920;-71
2022/09/25 05:33:20;;;;;;;6.15;2.35;;;20.40;99.90;;;;;;5094985;28;20031;-72
2022/09/25 05:35:47;;;;;;;3.88;1.92;;;20.50;99.90;;;;;;5094579;28;20115;-72
2022/09/25 05:38:13;;;;;;;4.82;1.85;;;20.80;99.90;;;;;;5095152;28;20051;-72
2022/09/25 05:40:39;;;;;;;5.25;1.83;;;21.60;99.90;;;;;;5094992;28;20031;-72
2022/09/25 05:43:06;;;;;;;3.15;1.50;;;22.60;99.90;;;;;;5094319;28;20099;-72
2022/09/25 05:45:33;;;;;;;4.82;1.50;;;23.40;99.90;;;;;;5094723;28;20043;-72
2022/09/25 05:48:09;;;;;;;6.32;1.73;;;24.30;99.90;;;;;;5094484;28;20036;-72
2022/09/25 05:50:36;;;;;;;6.35;1.75;;;25.30;99.90;;;;;;5094912;28;20035;-72
2022/09/25 05:53:04;;;;;;;5.20;1.60;;;26.00;99.90;;;;;;5094385;28;20142;-72
2022/09/25 05:55:31;;;;;;;5.60;1.40;;;26.50;99.90;;;;;;5094230;28;20131;-72
2022/09/25 05:58:01;;;;;;;3.67;1.17;;;27.00;99.90;;;;;;5094442;28;20024;-72
2022/09/25 06:00:27;;;;;;;2.80;1.42;;;27.60;99.90;;;;;;5094275;28;20024;-73
2022/09/25 06:02:53;;;;;;;4.70;1.50;;;27.90;99.90;;;;;;5093572;28;20020;-72
2022/09/25 06:05:19;;;;;;;3.67;1.40;;;28.00;99.90;;;;;;5093493;28;20051;-74
2022/09/25 06:07:52;;;;;;;5.18;1.38;;;28.30;99.90;;;;;;5093349;28;20020;-73
2022/09/25 06:10:18;;;;;;;3.88;1.25;;;28.50;99.90;;;;;;5093515;28;20031;-72
2022/09/25 06:12:44;;;;;;;6.13;1.40;;;28.80;99.90;;;;;;5093285;28;20024;-72
2022/09/25 06:15:16;;;;;;;3.92;1.30;;;29.10;99.90;;;;;;5092994;28;20028;-72
2022/09/25 06:17:42;;;;;;;5.20;1.23;;;29.40;99.90;;;;;;5093758;28;20020;-73
2022/09/25 06:20:10;;;;;;;3.88;1.30;;;29.50;99.90;;;;;;5093412;28;20024;-73
2022/09/25 06:22:36;;;;;;;3.33;1.27;;;29.40;99.90;;;;;;5093328;28;20056;-73
2022/09/25 06:25:03;;;;;;;;;;;29.70;99.90;;;;;;5094126;28;20093;-73
2022/09/25 06:27:30;;;;;;;4.18;1.30;;;30.50;99.90;;;;;;5093529;28;19998;-72
2022/09/25 06:29:56;;;;;;;3.75;1.20;;;30.40;99.90;;;;;;5093091;28;20052;-72
2022/09/25 06:32:22;;;;;;;;;;;31.00;99.90;;;;;;5093679;28;20476;-72
2022/09/25 06:34:48;;;;;;;5.32;1.30;;;30.60;99.90;;;;;;5093181;28;19957;-72
2022/09/25 06:37:14;;;;;;;;;;;30.30;99.90;;;;;;5093775;28;20020;-72
2022/09/25 06:39:40;;;;;;;6.07;1.40;;;30.20;99.90;;;;;;5091092;28;19910;-73
2022/09/25 06:42:06;;;;;;;6.20;1.30;;;29.60;99.90;;;;;;5092753;28;20492;-72
2022/09/25 06:44:33;;;;;;;4.18;1.15;;;29.50;99.90;;;;;;5092934;28;20114;-73
2022/09/25 06:47:00;;;;;;;3.67;1.10;;;29.60;99.90;;;;;;5093386;28;20024;-72
2022/09/25 06:49:26;;;;;;;3.42;1.27;;;28.70;99.90;;;;;;5092966;28;20047;-72
2022/09/25 06:51:52;;;;;;;3.38;1.10;;;28.60;99.90;;;;;;5092607;28;20367;-73
2022/09/25 06:54:18;;;;;;;2.28;1.00;;;28.90;99.90;;;;;;5092822;28;20093;-72
2022/09/25 06:56:48;;;;;;;4.32;1.45;;;29.00;99.90;;;;;;5093022;28;20190;-72
2022/09/25 06:59:15;;;;;;;6.03;1.20;;;30.10;99.90;;;;;;5092458;28;20039;-73
2022/09/25 07:01:41;;;;;;;5.38;1.50;;;30.90;99.90;;;;;;5090804;28;20519;-73
2022/09/25 07:04:08;;;;;;;;;;;31.90;99.90;;;;;;5092998;28;20100;-73
2022/09/25 07:06:36;;;;;;;6.40;1.20;;;32.40;99.90;;;;;;5092527;28;19926;-72
2022/09/25 07:09:02;;;;;;;6.88;1.20;;;31.70;99.90;;;;;;5092770;28;20046;-72
2022/09/25 07:11:30;;;;;;;7.20;1.58;;;31.90;99.90;;;;;;5092549;28;20032;-73
2022/09/25 07:13:56;;;;;;;5.80;1.40;;;31.10;99.90;;;;;;5092564;28;20024;-73
2022/09/25 07:16:27;;;;;;;4.22;1.20;;;31.00;99.90;;;;;;5092645;28;20050;-73
2022/09/25 07:18:56;;;;;;;5.70;1.15;;;32.00;99.90;;;;;;5092852;28;20020;-72
2022/09/25 07:21:23;;;;;;;4.78;1.20;;;32.20;99.90;;;;;;5092764;28;20036;-72
2022/09/25 07:23:51;;;;;;;4.18;1.00;;;33.00;99.90;;;;;;5092799;28;20027;-73
2022/09/25 07:26:21;;;;;;;4.03;1.17;;;33.10;99.90;;;;;;5092374;28;20082;-73
2022/09/25 07:28:53;;;;;;;5.40;1.20;;;31.70;99.90;;;;;;5092822;28;20039;-73
2022/09/25 07:31:22;;;;;;;6.68;1.30;;;30.90;99.90;;;;;;5092125;28;20099;-73
2022/09/25 07:33:48;;;;;;;3.08;1.25;;;29.80;99.90;;;;;;5092141;28;20016;-72
2022/09/25 07:36:16;;;;;;;5.55;1.50;;;28.70;99.90;;;;;;5092245;28;20107;-73
2022/09/25 07:38:42;;;;;;;3.30;1.30;;;28.30;99.90;;;;;;5091824;28;20032;-74
2022/09/25 07:41:13;;;;;;;3.85;1.38;;;28.00;99.90;;;;;;5090355;28;20393;-72
2022/09/25 07:43:42;;;;;;;5.15;1.70;;;27.90;99.90;;;;;;5091722;28;20368;-72
2022/09/25 07:46:08;;;;;;;4.82;1.90;;;27.80;99.90;;;;;;5089527;28;20360;-73
2022/09/25 07:48:34;;;;;;;;;;;27.70;99.90;;;;;;5090847;28;20023;-73
2022/09/25 07:51:01;;;;;;;6.63;1.70;;;27.30;99.90;;;;;;5090884;28;20404;-73
2022/09/25 07:53:28;;;;;;;4.95;2.03;;;27.00;99.90;;;;;;5089950;28;20028;-73
2022/09/25 07:55:58;;;;;;;5.88;2.22;;;26.80;99.90;;;;;;5090942;28;20020;-73
2022/09/25 07:59:07;;;;;;;9.32;2.45;;;26.70;99.90;;;;;;5091229;28;20035;-73
2022/09/25 08:13:08;;;;;;;8.50;2.47;;;26.30;99.90;;;;;;5170455;27;20427;-74
2022/09/25 08:15:34;;;;;;;5.70;2.03;;;26.10;99.90;;;;;;5168885;27;20044;-74
2022/09/25 08:18:00;;;;;;;6.50;2.50;;;26.20;99.90;;;;;;5171066;27;20057;-74
2022/09/25 08:20:26;;;;;;;6.10;1.92;;;26.30;99.90;;;;;;5169200;27;20031;-73
2022/09/25 08:22:53;;;;;;;6.22;1.90;;;26.40;99.90;;;;;;5170666;27;20109;-71
2022/09/25 08:25:20;;;;;;;8.85;2.03;;;26.60;99.90;;;;;;5168979;27;20033;-74
2022/09/25 08:27:46;;;;;;;5.38;1.80;;;26.70;99.90;;;;;;5170688;27;20026;-73
2022/09/25 08:30:12;;;;;;;6.15;1.85;;;27.10;99.90;;;;;;5170912;27;20023;-74
2022/09/25 08:32:39;;;;;;;6.78;1.90;;;26.90;99.90;;;;;;5169203;27;20042;-73
2022/09/25 08:35:07;;;;;;;9.75;2.15;;;27.00;99.90;;;;;;5170571;27;20025;-73
2022/09/25 08:37:32;;;;;;;;;;;26.80;99.90;;;;;;5171049;27;20033;-74
2022/09/25 08:39:58;;;;;;;;;;;27.10;99.90;;;;;;5170639;27;19903;-73
2022/09/25 08:42:33;;;;;;;8.30;1.58;;;27.40;99.90;;;;;;5170028;27;20009;-72
2022/09/25 08:50:35;;;;;;;7.55;1.50;;;26.60;99.90;;;;;;5169963;27;20073;-72
2022/09/25 08:53:25;;;;;;;5.55;1.65;;;26.90;99.90;;;;;;5168807;27;20030;-73
2022/09/25 08:58:41;;;;;;;6.47;1.58;;;27.30;99.90;;;;;;5169356;27;20418;-72
2022/09/25 09:01:12;;;;;;;5.47;1.67;;;27.20;99.90;;;;;;5168813;27;20058;-73
2022/09/25 09:03:54;;;;;;;4.80;1.65;;;27.10;99.90;;;;;;5169003;27;20456;-72
2022/09/25 09:06:23;;;;;;;8.18;1.73;;;27.20;99.90;;;;;;5169333;27;20018;-73
2022/09/25 09:09:00;;;;;;;7.00;1.67;;;27.50;99.90;;;;;;5167508;27;20033;-72
2022/09/25 09:11:56;;;;;;;9.00;1.55;;;27.20;99.90;;;;;;5168938;27;20121;-72
2022/09/25 09:14:28;;;;;;;8.73;1.88;;;27.10;99.90;;;;;;5155107;27;20437;-73
2022/09/25 09:17:32;;;;;;;7.47;1.40;;;27.00;99.90;;;;;;5154990;27;20399;-73
2022/09/25 09:20:05;;;;;;;6.13;1.55;;;27.40;99.90;;;;;;5154814;27;20054;-72
2022/09/25 09:22:43;;;;;;;5.55;1.63;;;27.60;99.90;;;;;;5155048;27;20117;-73
2022/09/25 09:25:24;;;;;;;7.63;1.70;;;27.60;99.90;;;;;;5155180;27;20015;-73
2022/09/25 09:28:19;;;;;;;6.63;1.63;;;27.60;99.90;;;;;;5154928;27;20034;-72
2022/09/25 09:31:06;;;;;;;4.90;1.40;;;27.80;99.90;;;;;;5145932;27;20107;-72
2022/09/25 09:33:49;;;;;;;6.47;1.40;;;27.80;99.90;;;;;;5154956;27;20019;-72
2022/09/25 09:37:10;;;;;;;5.82;1.65;;;27.90;99.90;;;;;;5154159;27;20046;-72
2022/09/25 09:39:49;;;;;;;5.18;1.63;;;27.80;99.90;;;;;;5083171;28;20071;-73
2022/09/25 09:42:27;;;;;;;5.75;1.58;;;27.80;99.90;;;;;;5090525;28;20039;-72
2022/09/25 09:45:17;;;;;;;6.45;2.22;;;28.00;99.90;;;;;;5090358;28;20035;-72
2022/09/25 09:48:05;;;;;;;8.88;1.70;;;28.10;99.90;;;;;;5090702;28;20097;-74
2022/09/25 09:50:39;;;;;;;8.13;1.95;;;28.00;99.90;;;;;;5090856;28;20059;-73
2022/09/25 09:53:12;;;;;;;7.57;1.45;;;28.20;99.90;;;;;;5090627;28;20190;-73
2022/09/25 09:55:47;;;;;;;6.13;1.80;;;28.10;99.90;;;;;;5090385;28;20108;-74
2022/09/25 09:58:40;;;;;;;6.03;1.67;;;28.10;99.90;;;;;;5090739;28;20036;-74
2022/09/25 10:01:09;;;;;;;21.38;2.50;;;27.80;99.90;;;;;;5090783;28;20063;-73
2022/09/25 10:03:38;;;;;;;5.40;1.58;;;27.70;99.90;;;;;;5073156;28;20090;-73
2022/09/25 10:06:10;;;;;;;5.55;1.25;;;27.50;99.90;;;;;;5073424;28;20471;-73
2022/09/25 10:09:25;;;;;;;5.32;1.70;;;27.60;99.90;;;;;;5090304;28;20038;-73
2022/09/25 10:12:14;;;;;;;6.72;1.40;;;27.50;99.90;;;;;;5089796;28;20070;-73
2022/09/25 10:14:46;;;;;;;9.52;1.60;;;27.30;99.90;;;;;;5080939;27;20468;-73
2022/09/25 10:17:14;;;;;;;9.40;2.10;;;27.30;99.90;;;;;;5154194;27;20023;-73
2022/09/25 10:19:50;;;;;;;6.70;2.30;;;27.40;99.90;;;;;;5153815;27;20071;-73
2022/09/25 10:22:47;;;;;;;6.97;2.00;;;27.60;99.90;;;;;;5153976;27;20035;-73
2022/09/25 10:25:32;;;;;;;6.40;1.90;;;28.00;99.90;;;;;;5088345;28;20092;-73
2022/09/25 10:27:58;;;;;;;5.23;1.70;;;28.30;99.90;;;;;;5072555;28;20051;-74
2022/09/25 10:30:24;;;;;;;6.95;1.77;;;28.10;99.90;;;;;;5089281;28;20270;-73
2022/09/25 10:33:06;;;;;;;5.97;1.63;;;28.20;99.90;;;;;;5089314;28;20410;-73
2022/09/25 10:35:38;;;;;;;5.18;1.70;;;28.10;99.90;;;;;;5089487;28;20028;-74
2022/09/25 10:38:15;;;;;;;7.10;1.52;;;27.90;99.90;;;;;;5089156;28;20486;-72
2022/09/25 10:40:46;;;;;;;6.00;1.58;;;27.60;99.90;;;;;;5089421;28;20519;-73
2022/09/25 10:43:19;;;;;;;4.97;1.80;;;27.70;99.90;;;;;;5089217;28;20051;-74
2022/09/25 10:45:55;;;;;;;7.18;1.92;;;27.80;99.90;;;;;;5089452;28;20024;-72
2022/09/25 10:51:15;;;;;;;5.60;1.45;;;28.20;99.90;;;;;;5089732;28;20358;-73
2022/09/25 10:53:42;;;;;;;6.05;1.50;;;28.40;99.90;;;;;;5089398;28;20035;-72
2022/09/25 10:56:13;;;;;;;5.63;1.75;;;28.20;99.90;;;;;;5089582;28;20040;-72
2022/09/25 10:58:44;;;;;;;8.00;1.50;;;28.30;99.90;;;;;;5089351;28;20528;-74
2022/09/25 11:01:12;;;;;;;6.80;1.38;;;28.60;99.90;;;;;;5109337;27;20438;-72
2022/09/25 11:03:50;;;;;;;7.82;1.83;;;28.70;99.90;;;;;;5153337;27;20383;-73
2022/09/25 11:06:31;;;;;;;9.77;1.80;;;28.90;99.90;;;;;;5152844;27;20029;-73
2022/09/25 11:09:18;;;;;;;6.78;1.40;;;28.50;99.90;;;;;;5152774;27;20384;-72
2022/09/25 11:11:46;;;;;;;4.72;1.27;;;28.70;99.90;;;;;;5153022;27;20042;-73
2022/09/25 11:14:33;;;;;;;4.45;1.48;;;29.00;99.90;;;;;;5152980;27;20023;-73
2022/09/25 11:17:04;;;;;;;6.75;1.50;;;29.00;99.90;;;;;;5153006;27;20110;-73
2022/09/25 11:19:36;;;;;;;9.57;1.73;;;28.90;99.90;;;;;;5152786;27;20419;-73
2022/09/25 11:22:32;;;;;;;6.85;1.70;;;28.80;99.90;;;;;;5151658;27;20053;-73
2022/09/25 11:25:40;;;;;;;6.40;1.40;;;28.90;99.90;;;;;;5147251;27;20453;-73
2022/09/25 11:28:23;;;;;;;5.35;1.35;;;29.00;99.90;;;;;;5152997;27;20026;-73
2022/09/25 11:30:56;;;;;;;6.43;1.27;;;29.30;99.90;;;;;;5153018;27;20027;-73
2022/09/25 11:33:41;;;;;;;7.78;1.77;;;29.50;99.90;;;;;;5152553;27;20060;-74
2022/09/25 11:36:29;;;;;;;4.70;1.27;;;29.10;99.90;;;;;;5152113;27;20116;-73
2022/09/25 11:42:01;;;;;;;11.05;1.85;;;29.00;99.90;;;;;;5152156;27;20046;-73
2022/09/25 11:44:33;;;;;;;4.00;1.40;;;28.80;99.90;;;;;;5152355;27;20038;-74
2022/09/25 11:47:24;;;;;;;7.72;1.58;;;28.60;99.90;;;;;;5152414;27;20027;-74
2022/09/25 11:49:53;;;;;;;6.25;1.40;;;28.70;99.90;;;;;;5150659;27;20037;-73
2022/09/25 11:52:24;;;;;;;8.00;1.80;;;28.90;99.90;;;;;;5152463;27;20067;-73
2022/09/25 11:55:14;;;;;;;6.90;1.90;;;29.10;99.90;;;;;;5152645;27;20035;-73
2022/09/25 11:58:19;;;;;;;5.38;1.40;;;28.70;99.90;;;;;;5152645;27;20030;-73
2022/09/25 12:01:06;;;;;;;7.97;1.88;;;28.50;99.90;;;;;;5152224;27;20065;-72
2022/09/25 12:03:58;;;;;;;6.45;1.75;;;28.40;99.90;;;;;;5152096;27;20027;-73
2022/09/25 12:06:54;;;;;;;5.80;1.60;;;27.80;99.90;;;;;;5121841;27;20092;-73
2022/09/25 12:09:44;;;;;;;6.68;1.63;;;27.90;99.90;;;;;;5152120;27;20045;-73
2022/09/25 12:12:40;;;;;;;9.30;1.60;;;28.00;99.90;;;;;;5152080;27;20386;-72
2022/09/25 12:15:25;;;;;;;10.43;2.38;;;27.40;99.90;;;;;;5151961;27;20058;-72
2022/09/25 12:18:06;;;;;;;9.45;2.30;;;27.10;99.90;;;;;;5150231;27;20019;-73
2022/09/25 12:20:48;;;;;;;8.18;1.52;;;27.10;99.90;;;;;;5151926;27;20026;-72
2022/09/25 12:23:26;;;;;;;5.53;1.55;;;27.20;99.90;;;;;;5151947;27;20446;-73
2022/09/25 12:26:03;;;;;;;8.73;1.80;;;27.20;99.90;;;;;;5152049;27;20480;-72
2022/09/25 12:28:53;;;;;;;7.57;1.70;;;27.30;99.90;;;;;;5152540;27;20037;-73
2022/09/25 12:31:53;;;;;;;6.00;1.50;;;27.60;99.90;;;;;;5152119;27;20464;-72
2022/09/25 12:34:36;;;;;;;7.13;1.60;;;27.90;99.90;;;;;;5151717;27;20023;-72
2022/09/25 12:37:14;;;;;;;9.45;1.85;;;27.80;99.90;;;;;;5151558;27;20019;-72
2022/09/25 12:39:45;;;;;;;6.25;1.50;;;27.70;99.90;;;;;;5151646;27;20058;-73
2022/09/25 12:42:28;;;;;;;8.88;2.03;;;27.70;99.90;;;;;;5151784;27;20034;-72
2022/09/25 12:45:04;;;;;;;5.40;1.33;;;27.50;99.90;;;;;;5151836;27;20451;-72
2022/09/25 12:47:45;;;;;;;8.73;1.70;;;26.60;99.90;;;;;;5151040;27;20041;-72
2022/09/25 12:50:16;;;;;;;7.60;1.70;;;26.50;99.90;;;;;;5155908;27;20019;-72
2022/09/25 12:52:50;;;;;;;9.00;1.83;;;26.80;99.90;;;;;;5155444;27;20494;-72
2022/09/25 12:55:37;;;;;;;5.28;1.27;;;27.30;99.90;;;;;;5155196;27;20053;-72
2022/09/25 12:58:17;;;;;;;6.10;1.25;;;27.50;99.90;;;;;;5155119;27;20097;-72
2022/09/25 13:00:47;;;;;;;3.65;1.00;;;27.90;99.90;;;;;;5155174;27;20390;-72
2022/09/25 13:03:22;;;;;;;4.55;1.70;;;28.00;99.90;;;;;;5155235;27;20022;-72
2022/09/25 13:06:14;;;;;;;4.05;1.67;;;28.00;99.90;;;;;;5155390;27;20019;-73
2022/09/25 13:09:14;;;;;;;6.63;1.50;;;28.30;99.90;;;;;;5155824;27;20181;-72
2022/09/25 13:11:49;;;;;;;5.57;1.30;;;28.40;99.90;;;;;;5154784;27;20452;-72
2022/09/25 13:14:45;;;;;;;5.07;1.38;;;28.70;99.90;;;;;;5154915;27;20026;-74
2022/09/25 13:17:11;;;;;;;;;;;28.90;99.90;;;;;;5155025;27;20433;-73
2022/09/25 13:19:38;;;;;;;5.28;1.20;;;29.00;99.90;;;;;;5153944;27;19911;-72
2022/09/25 13:22:29;;;;;;;6.30;1.50;;;29.00;99.90;;;;;;5154774;27;20363;-72
2022/09/25 13:25:12;;;;;;;5.38;1.67;;;28.80;99.90;;;;;;5154709;27;20103;-72
2022/09/25 13:27:45;;;;;;;6.60;1.33;;;28.90;99.90;;;;;;5154743;27;20019;-73
2022/09/25 13:30:26;;;;;;;6.88;1.08;;;28.70;99.90;;;;;;5154639;27;20107;-73
2022/09/25 13:33:01;;;;;;;2.70;0.95;;;29.00;99.90;;;;;;5154970;27;20377;-72
2022/09/25 13:35:31;;;;;;;4.03;1.10;;;29.00;99.90;;;;;;5155143;27;20011;-73
2022/09/25 13:41:14;;;;;;;5.97;1.35;;;29.10;99.90;;;;;;5155659;27;20122;-73
2022/09/25 13:43:40;;;;;;;5.45;1.63;;;29.00;99.90;;;;;;5153655;27;20049;-73
2022/09/25 13:46:22;;;;;;;6.45;1.50;;;28.80;99.90;;;;;;5155451;27;20483;-73
2022/09/25 13:48:54;;;;;;;4.75;1.40;;;28.90;99.90;;;;;;5154613;27;20152;-73
2022/09/25 13:51:20;;;;;;;3.78;1.23;;;28.50;99.90;;;;;;5155135;27;20022;-73
2022/09/25 13:53:58;;;;;;;4.60;1.38;;;28.40;99.90;;;;;;5154701;27;20023;-73
2022/09/25 13:56:26;;;;;;;7.50;1.48;;;28.20;99.90;;;;;;5152778;27;20034;-73
2022/09/25 13:59:01;;;;;;;5.28;1.42;;;28.20;99.90;;;;;;5154437;27;20023;-74
2022/09/25 14:01:37;;;;;;;11.18;1.75;;;28.20;99.90;;;;;;5154218;27;20046;-74
2022/09/25 14:04:18;;;;;;;4.72;1.40;;;28.30;99.90;;;;;;5154264;27;20409;-73
2022/09/25 14:06:46;;;;;;;7.22;1.48;;;28.00;99.90;;;;;;5154515;27;20530;-73